sensor_id;sensor_type;location;lat;lon;timestamp;P1;durP1;ratioP1;P2;durP2;ratioP2
2850;SDS011;1433;49.976;8.342;2022-12-18T00:01:14;46.80;;;29.57;;
2850;SDS011;1433;49.976;8.342;2022-12-18T00:03:42;41.23;;;29.37;;
2850;SDS011;1433;49.976;8.342;2022-12-18T00:06:09;48.73;;;27.77;;
2850;SDS011;1433;49.976;8.342;2022-12-18T00:08:35;48.13;;;29.20;;
2850;SDS011;1433;49.976;8.342;2022-12-18T00:11:05;50.83;;;30.63;;
2850;SDS011;1433;49.976;8.342;2022-12-18T00:13:34;46.33;;;27.00;;
2850;SDS011;1433;49.976;8.342;2022-12-18T00:16:07;41.77;;;27.37;;
2850;SDS011;1433;49.976;8.342;2022-12-18T00:18:30;39.20;;;23.20;;
2850;SDS011;1433;49.976;8.342;2022-12-18T00:20:59;43.57;;;25.63;;
2850;SDS011;1433;49.976;8.342;2022-12-18T00:23:30;46.57;;;25.97;;
2850;SDS011;1433;49.976;8.342;2022-12-18T00:26:01;32.40;;;22.83;;
2850;SDS011;1433;49.976;8.342;2022-12-18T00:28:29;37.60;;;25.93;;
2850;SDS011;1433;49.976;8.342;2022-12-18T00:31:03;39.33;;;23.30;;
2850;SDS011;1433;49.976;8.342;2022-12-18T00:33:31;38.93;;;24.50;;
2850;SDS011;1433;49.976;8.342;2022-12-18T00:36:02;42.27;;;26.60;;
2850;SDS011;1433;49.976;8.342;2022-12-18T00:38:31;45.37;;;25.10;;
2850;SDS011;1433;49.976;8.342;2022-12-18T00:40:58;40.23;;;24.23;;
2850;SDS011;1433;49.976;8.342;2022-12-18T00:43:25;45.23;;;25.97;;
2850;SDS011;1433;49.976;8.342;2022-12-18T00:45:52;36.80;;;21.23;;
2850;SDS011;1433;49.976;8.342;2022-12-18T00:48:19;39.87;;;22.30;;
2850;SDS011;1433;49.976;8.342;2022-12-18T00:50:45;39.70;;;22.87;;
2850;SDS011;1433;49.976;8.342;2022-12-18T00:53:13;37.00;;;23.03;;
2850;SDS011;1433;49.976;8.342;2022-12-18T00:55:39;38.50;;;21.70;;
2850;SDS011;1433;49.976;8.342;2022-12-18T00:58:07;38.70;;;21.80;;
2850;SDS011;1433;49.976;8.342;2022-12-18T01:00:35;32.10;;;22.17;;
2850;SDS011;1433;49.976;8.342;2022-12-18T01:03:02;44.97;;;27.03;;
2850;SDS011;1433;49.976;8.342;2022-12-18T01:05:28;47.53;;;31.47;;
2850;SDS011;1433;49.976;8.342;2022-12-18T01:07:55;43.60;;;24.70;;
2850;SDS011;1433;49.976;8.342;2022-12-18T01:10:22;40.63;;;24.73;;
2850;SDS011;1433;49.976;8.342;2022-12-18T01:12:56;43.20;;;24.50;;
2850;SDS011;1433;49.976;8.342;2022-12-18T01:15:23;40.13;;;24.20;;
2850;SDS011;1433;49.976;8.342;2022-12-18T01:17:51;40.10;;;25.03;;
2850;SDS011;1433;49.976;8.342;2022-12-18T01:20:18;40.20;;;23.23;;
2850;SDS011;1433;49.976;8.342;2022-12-18T01:22:44;37.60;;;21.13;;
2850;SDS011;1433;49.976;8.342;2022-12-18T01:25:12;43.43;;;25.03;;
2850;SDS011;1433;49.976;8.342;2022-12-18T01:27:38;36.10;;;24.37;;
2850;SDS011;1433;49.976;8.342;2022-12-18T01:30:04;38.10;;;23.63;;
2850;SDS011;1433;49.976;8.342;2022-12-18T01:32:32;30.20;;;21.60;;
2850;SDS011;1433;49.976;8.342;2022-12-18T01:34:58;45.87;;;25.70;;
2850;SDS011;1433;49.976;8.342;2022-12-18T01:37:26;38.03;;;24.13;;
2850;SDS011;1433;49.976;8.342;2022-12-18T01:39:53;42.30;;;25.80;;
2850;SDS011;1433;49.976;8.342;2022-12-18T01:42:20;32.67;;;22.80;;
2850;SDS011;1433;49.976;8.342;2022-12-18T01:47:46;39.33;;;23.47;;
2850;SDS011;1433;49.976;8.342;2022-12-18T01:50:29;37.97;;;23.40;;
2850;SDS011;1433;49.976;8.342;2022-12-18T01:53:16;33.90;;;23.17;;
2850;SDS011;1433;49.976;8.342;2022-12-18T01:55:43;28.10;;;20.23;;
2850;SDS011;1433;49.976;8.342;2022-12-18T01:58:18;32.90;;;22.20;;
2850;SDS011;1433;49.976;8.342;2022-12-18T02:00:47;34.70;;;20.93;;
2850;SDS011;1433;49.976;8.342;2022-12-18T02:03:13;36.70;;;23.60;;
2850;SDS011;1433;49.976;8.342;2022-12-18T02:05:43;37.43;;;21.70;;
2850;SDS011;1433;49.976;8.342;2022-12-18T02:08:12;35.37;;;22.20;;
2850;SDS011;1433;49.976;8.342;2022-12-18T02:13:30;39.77;;;22.50;;
2850;SDS011;1433;49.976;8.342;2022-12-18T02:18:40;31.67;;;18.87;;
2850;SDS011;1433;49.976;8.342;2022-12-18T02:21:32;38.60;;;22.17;;
2850;SDS011;1433;49.976;8.342;2022-12-18T02:26:30;36.45;;;21.40;;
2850;SDS011;1433;49.976;8.342;2022-12-18T02:29:04;37.63;;;21.07;;
2850;SDS011;1433;49.976;8.342;2022-12-18T02:31:45;35.30;;;20.00;;
2850;SDS011;1433;49.976;8.342;2022-12-18T02:34:15;29.63;;;20.03;;
2850;SDS011;1433;49.976;8.342;2022-12-18T02:36:43;32.00;;;20.47;;
2850;SDS011;1433;49.976;8.342;2022-12-18T02:39:12;35.37;;;21.13;;
2850;SDS011;1433;49.976;8.342;2022-12-18T02:41:42;37.33;;;20.80;;
2850;SDS011;1433;49.976;8.342;2022-12-18T02:44:11;30.00;;;18.37;;
2850;SDS011;1433;49.976;8.342;2022-12-18T02:46:43;35.83;;;19.80;;
2850;SDS011;1433;49.976;8.342;2022-12-18T02:49:28;31.30;;;20.23;;
2850;SDS011;1433;49.976;8.342;2022-12-18T02:52:23;31.53;;;18.13;;
2850;SDS011;1433;49.976;8.342;2022-12-18T02:54:32;26.90;;;17.40;;
2850;SDS011;1433;49.976;8.342;2022-12-18T02:57:11;20.00;;;14.00;;
2850;SDS011;1433;49.976;8.342;2022-12-18T02:59:42;30.10;;;18.43;;
2850;SDS011;1433;49.976;8.342;2022-12-18T03:04:49;25.90;;;18.10;;
2850;SDS011;1433;49.976;8.342;2022-12-18T03:07:18;24.40;;;15.87;;
2850;SDS011;1433;49.976;8.342;2022-12-18T03:09:48;25.20;;;17.50;;
2850;SDS011;1433;49.976;8.342;2022-12-18T03:12:27;25.00;;;16.47;;
2850;SDS011;1433;49.976;8.342;2022-12-18T03:15:01;24.40;;;18.37;;
2850;SDS011;1433;49.976;8.342;2022-12-18T03:17:30;26.47;;;17.53;;
2850;SDS011;1433;49.976;8.342;2022-12-18T03:20:05;33.63;;;17.73;;
2850;SDS011;1433;49.976;8.342;2022-12-18T03:22:34;24.63;;;16.07;;
2850;SDS011;1433;49.976;8.342;2022-12-18T03:25:06;26.07;;;16.63;;
2850;SDS011;1433;49.976;8.342;2022-12-18T03:27:35;25.85;;;17.85;;
2850;SDS011;1433;49.976;8.342;2022-12-18T03:30:12;25.47;;;16.53;;
2850;SDS011;1433;49.976;8.342;2022-12-18T03:32:43;26.73;;;16.83;;
2850;SDS011;1433;49.976;8.342;2022-12-18T03:35:11;27.97;;;16.73;;
2850;SDS011;1433;49.976;8.342;2022-12-18T03:37:43;21.90;;;15.73;;
2850;SDS011;1433;49.976;8.342;2022-12-18T03:40:09;25.50;;;16.17;;
2850;SDS011;1433;49.976;8.342;2022-12-18T03:42:44;27.83;;;16.83;;
2850;SDS011;1433;49.976;8.342;2022-12-18T03:45:19;32.70;;;18.70;;
2850;SDS011;1433;49.976;8.342;2022-12-18T03:47:58;27.37;;;18.10;;
2850;SDS011;1433;49.976;8.342;2022-12-18T03:50:51;20.33;;;13.40;;
2850;SDS011;1433;49.976;8.342;2022-12-18T03:56:10;26.67;;;16.27;;
2850;SDS011;1433;49.976;8.342;2022-12-18T03:58:39;27.40;;;16.10;;
2850;SDS011;1433;49.976;8.342;2022-12-18T04:01:15;24.53;;;16.53;;
2850;SDS011;1433;49.976;8.342;2022-12-18T04:03:43;27.37;;;16.90;;
2850;SDS011;1433;49.976;8.342;2022-12-18T04:06:12;22.67;;;15.50;;
2850;SDS011;1433;49.976;8.342;2022-12-18T04:08:41;29.07;;;19.90;;
2850;SDS011;1433;49.976;8.342;2022-12-18T04:11:09;22.23;;;16.43;;
2850;SDS011;1433;49.976;8.342;2022-12-18T04:13:37;33.20;;;19.33;;
2850;SDS011;1433;49.976;8.342;2022-12-18T04:16:09;23.27;;;16.93;;
2850;SDS011;1433;49.976;8.342;2022-12-18T04:18:37;25.97;;;17.40;;
2850;SDS011;1433;49.976;8.342;2022-12-18T04:21:03;26.43;;;15.93;;
2850;SDS011;1433;49.976;8.342;2022-12-18T04:23:30;27.40;;;17.93;;
2850;SDS011;1433;49.976;8.342;2022-12-18T04:25:57;25.40;;;17.97;;
2850;SDS011;1433;49.976;8.342;2022-12-18T04:28:25;25.00;;;16.90;;
2850;SDS011;1433;49.976;8.342;2022-12-18T04:30:51;18.60;;;16.13;;
2850;SDS011;1433;49.976;8.342;2022-12-18T04:33:19;24.33;;;18.10;;
2850;SDS011;1433;49.976;8.342;2022-12-18T04:35:45;31.03;;;18.77;;
2850;SDS011;1433;49.976;8.342;2022-12-18T04:38:12;28.70;;;19.20;;
2850;SDS011;1433;49.976;8.342;2022-12-18T04:40:39;30.25;;;19.02;;
2850;SDS011;1433;49.976;8.342;2022-12-18T04:43:08;25.92;;;19.05;;
2850;SDS011;1433;49.976;8.342;2022-12-18T04:45:34;24.97;;;15.97;;
2850;SDS011;1433;49.976;8.342;2022-12-18T04:48:01;29.17;;;17.43;;
2850;SDS011;1433;49.976;8.342;2022-12-18T04:50:28;25.93;;;20.80;;
2850;SDS011;1433;49.976;8.342;2022-12-18T04:52:55;30.50;;;19.63;;
2850;SDS011;1433;49.976;8.342;2022-12-18T04:55:22;24.57;;;15.80;;
2850;SDS011;1433;49.976;8.342;2022-12-18T04:57:51;32.63;;;21.10;;
2850;SDS011;1433;49.976;8.342;2022-12-18T05:00:17;26.00;;;18.90;;
2850;SDS011;1433;49.976;8.342;2022-12-18T05:02:44;32.70;;;19.83;;
2850;SDS011;1433;49.976;8.342;2022-12-18T05:05:10;26.93;;;18.27;;
2850;SDS011;1433;49.976;8.342;2022-12-18T05:07:36;29.27;;;19.23;;
2850;SDS011;1433;49.976;8.342;2022-12-18T05:10:03;36.93;;;23.77;;
2850;SDS011;1433;49.976;8.342;2022-12-18T05:12:32;25.93;;;19.60;;
2850;SDS011;1433;49.976;8.342;2022-12-18T05:14:58;32.67;;;22.40;;
2850;SDS011;1433;49.976;8.342;2022-12-18T05:17:25;34.73;;;21.67;;
2850;SDS011;1433;49.976;8.342;2022-12-18T05:19:51;32.00;;;21.07;;
2850;SDS011;1433;49.976;8.342;2022-12-18T05:22:17;28.13;;;18.80;;
2850;SDS011;1433;49.976;8.342;2022-12-18T05:24:43;31.27;;;18.40;;
2850;SDS011;1433;49.976;8.342;2022-12-18T05:27:09;23.90;;;18.03;;
2850;SDS011;1433;49.976;8.342;2022-12-18T05:29:35;26.03;;;19.00;;
2850;SDS011;1433;49.976;8.342;2022-12-18T05:32:01;26.67;;;19.50;;
2850;SDS011;1433;49.976;8.342;2022-12-18T05:34:27;35.57;;;20.00;;
2850;SDS011;1433;49.976;8.342;2022-12-18T05:36:54;31.00;;;20.67;;
2850;SDS011;1433;49.976;8.342;2022-12-18T05:39:20;25.17;;;18.07;;
2850;SDS011;1433;49.976;8.342;2022-12-18T05:41:46;28.70;;;18.40;;
2850;SDS011;1433;49.976;8.342;2022-12-18T05:44:12;29.30;;;17.80;;
2850;SDS011;1433;49.976;8.342;2022-12-18T05:46:41;30.10;;;18.00;;
2850;SDS011;1433;49.976;8.342;2022-12-18T05:49:07;32.63;;;18.20;;
2850;SDS011;1433;49.976;8.342;2022-12-18T05:51:33;33.90;;;19.30;;
2850;SDS011;1433;49.976;8.342;2022-12-18T05:53:59;24.90;;;19.00;;
2850;SDS011;1433;49.976;8.342;2022-12-18T05:56:25;26.60;;;18.17;;
2850;SDS011;1433;49.976;8.342;2022-12-18T05:58:52;27.30;;;19.17;;
2850;SDS011;1433;49.976;8.342;2022-12-18T06:01:20;29.30;;;18.90;;
2850;SDS011;1433;49.976;8.342;2022-12-18T06:03:48;23.70;;;17.10;;
2850;SDS011;1433;49.976;8.342;2022-12-18T06:06:26;30.07;;;18.83;;
2850;SDS011;1433;49.976;8.342;2022-12-18T06:08:50;32.93;;;21.60;;
2850;SDS011;1433;49.976;8.342;2022-12-18T06:11:18;25.23;;;19.43;;
2850;SDS011;1433;49.976;8.342;2022-12-18T06:13:49;28.03;;;17.40;;
2850;SDS011;1433;49.976;8.342;2022-12-18T06:16:16;34.53;;;21.03;;
2850;SDS011;1433;49.976;8.342;2022-12-18T06:18:42;30.17;;;19.97;;
2850;SDS011;1433;49.976;8.342;2022-12-18T06:21:08;26.53;;;17.43;;
2850;SDS011;1433;49.976;8.342;2022-12-18T06:23:34;31.10;;;19.03;;
2850;SDS011;1433;49.976;8.342;2022-12-18T06:26:08;26.03;;;18.60;;
2850;SDS011;1433;49.976;8.342;2022-12-18T06:28:36;23.33;;;18.90;;
2850;SDS011;1433;49.976;8.342;2022-12-18T06:31:02;31.97;;;19.33;;
2850;SDS011;1433;49.976;8.342;2022-12-18T06:33:29;35.13;;;18.70;;
2850;SDS011;1433;49.976;8.342;2022-12-18T06:35:59;27.63;;;19.37;;
2850;SDS011;1433;49.976;8.342;2022-12-18T06:38:27;25.87;;;19.10;;
2850;SDS011;1433;49.976;8.342;2022-12-18T06:40:53;26.47;;;18.93;;
2850;SDS011;1433;49.976;8.342;2022-12-18T06:43:21;25.77;;;17.67;;
2850;SDS011;1433;49.976;8.342;2022-12-18T06:45:50;30.60;;;20.10;;
2850;SDS011;1433;49.976;8.342;2022-12-18T06:48:18;30.07;;;21.33;;
2850;SDS011;1433;49.976;8.342;2022-12-18T06:50:45;35.87;;;21.50;;
2850;SDS011;1433;49.976;8.342;2022-12-18T06:53:11;29.10;;;19.87;;
2850;SDS011;1433;49.976;8.342;2022-12-18T06:55:37;31.40;;;19.77;;
2850;SDS011;1433;49.976;8.342;2022-12-18T06:58:03;30.33;;;20.83;;
2850;SDS011;1433;49.976;8.342;2022-12-18T07:00:30;26.37;;;19.93;;
2850;SDS011;1433;49.976;8.342;2022-12-18T07:02:56;28.83;;;19.57;;
2850;SDS011;1433;49.976;8.342;2022-12-18T07:05:22;25.93;;;17.43;;
2850;SDS011;1433;49.976;8.342;2022-12-18T07:07:48;25.93;;;19.20;;
2850;SDS011;1433;49.976;8.342;2022-12-18T07:10:14;28.77;;;19.90;;
2850;SDS011;1433;49.976;8.342;2022-12-18T07:12:40;32.87;;;20.10;;
2850;SDS011;1433;49.976;8.342;2022-12-18T07:15:07;27.63;;;19.37;;
2850;SDS011;1433;49.976;8.342;2022-12-18T07:17:33;28.83;;;19.70;;
2850;SDS011;1433;49.976;8.342;2022-12-18T07:19:59;30.70;;;20.83;;
2850;SDS011;1433;49.976;8.342;2022-12-18T07:22:26;24.50;;;19.20;;
2850;SDS011;1433;49.976;8.342;2022-12-18T07:24:52;30.33;;;22.93;;
2850;SDS011;1433;49.976;8.342;2022-12-18T07:27:19;33.50;;;20.97;;
2850;SDS011;1433;49.976;8.342;2022-12-18T07:29:45;46.43;;;27.50;;
2850;SDS011;1433;49.976;8.342;2022-12-18T07:32:11;35.30;;;23.43;;
2850;SDS011;1433;49.976;8.342;2022-12-18T07:34:37;31.43;;;22.70;;
2850;SDS011;1433;49.976;8.342;2022-12-18T07:37:03;37.27;;;24.40;;
2850;SDS011;1433;49.976;8.342;2022-12-18T07:39:30;30.37;;;21.60;;
2850;SDS011;1433;49.976;8.342;2022-12-18T07:41:56;37.10;;;24.70;;
2850;SDS011;1433;49.976;8.342;2022-12-18T07:44:42;33.80;;;22.93;;
2850;SDS011;1433;49.976;8.342;2022-12-18T07:47:09;32.20;;;22.23;;
2850;SDS011;1433;49.976;8.342;2022-12-18T07:49:35;36.90;;;22.60;;
2850;SDS011;1433;49.976;8.342;2022-12-18T07:52:01;34.07;;;23.27;;
2850;SDS011;1433;49.976;8.342;2022-12-18T07:54:27;37.00;;;25.33;;
2850;SDS011;1433;49.976;8.342;2022-12-18T07:56:53;33.47;;;24.20;;
2850;SDS011;1433;49.976;8.342;2022-12-18T07:59:19;37.63;;;24.23;;
2850;SDS011;1433;49.976;8.342;2022-12-18T08:01:46;39.97;;;25.30;;
2850;SDS011;1433;49.976;8.342;2022-12-18T08:04:12;37.93;;;24.90;;
2850;SDS011;1433;49.976;8.342;2022-12-18T08:06:38;41.73;;;23.13;;
2850;SDS011;1433;49.976;8.342;2022-12-18T08:09:04;33.50;;;24.90;;
2850;SDS011;1433;49.976;8.342;2022-12-18T08:11:30;37.47;;;23.20;;
2850;SDS011;1433;49.976;8.342;2022-12-18T08:13:57;37.50;;;25.87;;
2850;SDS011;1433;49.976;8.342;2022-12-18T08:16:24;39.57;;;25.90;;
2850;SDS011;1433;49.976;8.342;2022-12-18T08:18:51;37.10;;;24.60;;
2850;SDS011;1433;49.976;8.342;2022-12-18T08:21:19;40.13;;;26.60;;
2850;SDS011;1433;49.976;8.342;2022-12-18T08:23:52;37.83;;;24.83;;
2850;SDS011;1433;49.976;8.342;2022-12-18T08:26:21;35.40;;;26.87;;
2850;SDS011;1433;49.976;8.342;2022-12-18T08:28:47;36.73;;;23.07;;
2850;SDS011;1433;49.976;8.342;2022-12-18T08:31:14;30.60;;;23.53;;
2850;SDS011;1433;49.976;8.342;2022-12-18T08:33:41;36.70;;;26.43;;
2850;SDS011;1433;49.976;8.342;2022-12-18T08:36:08;36.30;;;25.07;;
2850;SDS011;1433;49.976;8.342;2022-12-18T08:38:35;42.40;;;25.83;;
2850;SDS011;1433;49.976;8.342;2022-12-18T08:41:02;42.93;;;26.90;;
2850;SDS011;1433;49.976;8.342;2022-12-18T08:43:30;33.43;;;26.53;;
2850;SDS011;1433;49.976;8.342;2022-12-18T08:46:23;33.63;;;23.13;;
2850;SDS011;1433;49.976;8.342;2022-12-18T08:48:51;36.70;;;25.17;;
2850;SDS011;1433;49.976;8.342;2022-12-18T08:51:18;30.97;;;25.00;;
2850;SDS011;1433;49.976;8.342;2022-12-18T08:53:45;32.77;;;24.23;;
2850;SDS011;1433;49.976;8.342;2022-12-18T08:56:12;31.73;;;22.93;;
2850;SDS011;1433;49.976;8.342;2022-12-18T08:58:40;35.40;;;24.53;;
2850;SDS011;1433;49.976;8.342;2022-12-18T09:01:08;43.00;;;28.60;;
2850;SDS011;1433;49.976;8.342;2022-12-18T09:03:36;44.13;;;26.97;;
2850;SDS011;1433;49.976;8.342;2022-12-18T09:06:03;40.80;;;26.80;;
2850;SDS011;1433;49.976;8.342;2022-12-18T09:08:29;41.40;;;25.23;;
2850;SDS011;1433;49.976;8.342;2022-12-18T09:10:56;40.97;;;24.90;;
2850;SDS011;1433;49.976;8.342;2022-12-18T09:13:22;42.67;;;27.93;;
2850;SDS011;1433;49.976;8.342;2022-12-18T09:15:51;37.03;;;25.47;;
2850;SDS011;1433;49.976;8.342;2022-12-18T09:18:19;36.00;;;26.63;;
2850;SDS011;1433;49.976;8.342;2022-12-18T09:20:46;40.83;;;27.90;;
2850;SDS011;1433;49.976;8.342;2022-12-18T09:23:13;40.33;;;26.90;;
2850;SDS011;1433;49.976;8.342;2022-12-18T09:25:44;37.77;;;26.27;;
2850;SDS011;1433;49.976;8.342;2022-12-18T09:28:12;42.47;;;26.80;;
2850;SDS011;1433;49.976;8.342;2022-12-18T09:30:41;33.37;;;26.50;;
2850;SDS011;1433;49.976;8.342;2022-12-18T09:33:10;41.30;;;27.20;;
2850;SDS011;1433;49.976;8.342;2022-12-18T09:35:42;38.53;;;27.57;;
2850;SDS011;1433;49.976;8.342;2022-12-18T09:38:18;38.50;;;26.30;;
2850;SDS011;1433;49.976;8.342;2022-12-18T09:43:23;38.30;;;26.70;;
2850;SDS011;1433;49.976;8.342;2022-12-18T09:45:49;40.03;;;25.93;;
2850;SDS011;1433;49.976;8.342;2022-12-18T09:48:34;42.10;;;27.03;;
2850;SDS011;1433;49.976;8.342;2022-12-18T09:50:55;36.37;;;26.10;;
2850;SDS011;1433;49.976;8.342;2022-12-18T09:53:24;37.23;;;26.77;;
2850;SDS011;1433;49.976;8.342;2022-12-18T09:55:53;46.53;;;32.53;;
2850;SDS011;1433;49.976;8.342;2022-12-18T09:58:24;38.03;;;29.37;;
2850;SDS011;1433;49.976;8.342;2022-12-18T10:01:07;37.80;;;26.83;;
2850;SDS011;1433;49.976;8.342;2022-12-18T10:03:36;35.30;;;26.40;;
2850;SDS011;1433;49.976;8.342;2022-12-18T10:11:30;37.60;;;25.10;;
2850;SDS011;1433;49.976;8.342;2022-12-18T10:14:03;41.93;;;28.07;;
2850;SDS011;1433;49.976;8.342;2022-12-18T10:16:36;37.33;;;26.77;;
2850;SDS011;1433;49.976;8.342;2022-12-18T10:21:48;36.73;;;25.97;;
2850;SDS011;1433;49.976;8.342;2022-12-18T10:24:23;40.90;;;28.70;;
2850;SDS011;1433;49.976;8.342;2022-12-18T10:26:55;34.10;;;25.43;;
2850;SDS011;1433;49.976;8.342;2022-12-18T10:29:24;40.47;;;27.40;;
2850;SDS011;1433;49.976;8.342;2022-12-18T10:31:51;35.10;;;26.00;;
2850;SDS011;1433;49.976;8.342;2022-12-18T10:34:17;38.97;;;29.73;;
2850;SDS011;1433;49.976;8.342;2022-12-18T10:36:43;32.33;;;24.77;;
2850;SDS011;1433;49.976;8.342;2022-12-18T10:39:17;44.20;;;31.30;;
2850;SDS011;1433;49.976;8.342;2022-12-18T10:41:45;33.53;;;26.07;;
2850;SDS011;1433;49.976;8.342;2022-12-18T10:44:19;38.57;;;27.10;;
2850;SDS011;1433;49.976;8.342;2022-12-18T10:46:51;34.67;;;25.47;;
2850;SDS011;1433;49.976;8.342;2022-12-18T10:49:33;38.47;;;26.27;;
2850;SDS011;1433;49.976;8.342;2022-12-18T10:52:14;37.17;;;28.00;;
2850;SDS011;1433;49.976;8.342;2022-12-18T10:55:01;40.70;;;29.00;;
2850;SDS011;1433;49.976;8.342;2022-12-18T10:57:35;34.03;;;27.60;;
2850;SDS011;1433;49.976;8.342;2022-12-18T11:00:26;38.20;;;28.90;;
2850;SDS011;1433;49.976;8.342;2022-12-18T11:02:54;41.90;;;28.00;;
2850;SDS011;1433;49.976;8.342;2022-12-18T11:05:26;37.70;;;28.83;;
2850;SDS011;1433;49.976;8.342;2022-12-18T11:07:54;45.90;;;31.00;;
2850;SDS011;1433;49.976;8.342;2022-12-18T11:10:25;43.97;;;27.33;;
2850;SDS011;1433;49.976;8.342;2022-12-18T11:15:54;46.73;;;29.77;;
2850;SDS011;1433;49.976;8.342;2022-12-18T11:21:00;42.50;;;29.77;;
2850;SDS011;1433;49.976;8.342;2022-12-18T11:23:36;41.43;;;30.43;;
2850;SDS011;1433;49.976;8.342;2022-12-18T11:26:05;42.23;;;29.27;;
2850;SDS011;1433;49.976;8.342;2022-12-18T11:31:24;37.90;;;28.73;;
2850;SDS011;1433;49.976;8.342;2022-12-18T11:33:54;44.80;;;31.87;;
2850;SDS011;1433;49.976;8.342;2022-12-18T11:36:28;51.70;;;29.93;;
2850;SDS011;1433;49.976;8.342;2022-12-18T11:38:56;43.77;;;31.50;;
2850;SDS011;1433;49.976;8.342;2022-12-18T11:41:32;43.43;;;32.07;;
2850;SDS011;1433;49.976;8.342;2022-12-18T11:44:20;47.63;;;31.37;;
2850;SDS011;1433;49.976;8.342;2022-12-18T11:47:00;35.10;;;27.27;;
2850;SDS011;1433;49.976;8.342;2022-12-18T11:49:33;45.57;;;31.20;;
2850;SDS011;1433;49.976;8.342;2022-12-18T12:00:21;46.77;;;31.70;;
2850;SDS011;1433;49.976;8.342;2022-12-18T12:08:22;42.50;;;30.93;;
2850;SDS011;1433;49.976;8.342;2022-12-18T12:24:49;46.87;;;31.90;;
2850;SDS011;1433;49.976;8.342;2022-12-18T12:27:38;44.77;;;31.83;;
2850;SDS011;1433;49.976;8.342;2022-12-18T12:30:18;47.00;;;31.90;;
2850;SDS011;1433;49.976;8.342;2022-12-18T12:38:21;45.67;;;32.40;;
2850;SDS011;1433;49.976;8.342;2022-12-18T12:40:59;50.30;;;31.40;;
2850;SDS011;1433;49.976;8.342;2022-12-18T12:43:36;45.37;;;32.50;;
2850;SDS011;1433;49.976;8.342;2022-12-18T12:46:13;48.67;;;33.67;;
2850;SDS011;1433;49.976;8.342;2022-12-18T12:48:49;43.97;;;32.50;;
2850;SDS011;1433;49.976;8.342;2022-12-18T12:51:22;46.53;;;32.00;;
2850;SDS011;1433;49.976;8.342;2022-12-18T12:53:54;42.50;;;31.17;;
2850;SDS011;1433;49.976;8.342;2022-12-18T12:56:24;44.37;;;32.27;;
2850;SDS011;1433;49.976;8.342;2022-12-18T13:01:30;47.60;;;30.30;;
2850;SDS011;1433;49.976;8.342;2022-12-18T13:07:39;42.33;;;28.63;;
2850;SDS011;1433;49.976;8.342;2022-12-18T13:09:37;45.90;;;30.10;;
2850;SDS011;1433;49.976;8.342;2022-12-18T13:12:12;50.20;;;32.60;;
2850;SDS011;1433;49.976;8.342;2022-12-18T13:15:11;50.03;;;31.97;;
2850;SDS011;1433;49.976;8.342;2022-12-18T13:17:33;49.43;;;33.23;;
2850;SDS011;1433;49.976;8.342;2022-12-18T13:20:09;47.50;;;31.40;;
2850;SDS011;1433;49.976;8.342;2022-12-18T13:22:45;53.97;;;33.70;;
2850;SDS011;1433;49.976;8.342;2022-12-18T13:28:00;44.03;;;30.13;;
2850;SDS011;1433;49.976;8.342;2022-12-18T13:38:32;53.27;;;30.07;;
2850;SDS011;1433;49.976;8.342;2022-12-18T13:43:45;42.17;;;30.40;;
2850;SDS011;1433;49.976;8.342;2022-12-18T13:48:57;45.50;;;30.40;;
2850;SDS011;1433;49.976;8.342;2022-12-18T13:51:25;41.53;;;28.17;;
2850;SDS011;1433;49.976;8.342;2022-12-18T13:54:54;54.23;;;33.40;;
2850;SDS011;1433;49.976;8.342;2022-12-18T13:56:48;49.47;;;32.47;;
2850;SDS011;1433;49.976;8.342;2022-12-18T13:59:16;46.27;;;32.93;;
2850;SDS011;1433;49.976;8.342;2022-12-18T14:01:57;45.30;;;32.53;;
2850;SDS011;1433;49.976;8.342;2022-12-18T14:04:27;48.73;;;30.67;;
2850;SDS011;1433;49.976;8.342;2022-12-18T14:06:56;47.37;;;29.30;;
2850;SDS011;1433;49.976;8.342;2022-12-18T14:09:25;43.70;;;29.47;;
2850;SDS011;1433;49.976;8.342;2022-12-18T14:11:54;54.43;;;32.40;;
2850;SDS011;1433;49.976;8.342;2022-12-18T14:14:24;54.20;;;31.37;;
2850;SDS011;1433;49.976;8.342;2022-12-18T14:16:50;57.37;;;32.67;;
2850;SDS011;1433;49.976;8.342;2022-12-18T14:19:18;47.77;;;30.87;;
2850;SDS011;1433;49.976;8.342;2022-12-18T14:21:45;47.23;;;32.13;;
2850;SDS011;1433;49.976;8.342;2022-12-18T14:26:58;44.10;;;29.27;;
2850;SDS011;1433;49.976;8.342;2022-12-18T14:29:29;43.53;;;28.90;;
2850;SDS011;1433;49.976;8.342;2022-12-18T14:32:12;51.17;;;30.73;;
2850;SDS011;1433;49.976;8.342;2022-12-18T14:34:49;45.90;;;30.13;;
2850;SDS011;1433;49.976;8.342;2022-12-18T14:37:23;53.07;;;31.50;;
2850;SDS011;1433;49.976;8.342;2022-12-18T14:39:51;45.37;;;32.07;;
2850;SDS011;1433;49.976;8.342;2022-12-18T14:42:29;45.70;;;33.23;;
2850;SDS011;1433;49.976;8.342;2022-12-18T14:47:59;48.57;;;30.60;;
2850;SDS011;1433;49.976;8.342;2022-12-18T14:50:25;52.57;;;32.03;;
2850;SDS011;1433;49.976;8.342;2022-12-18T14:52:52;51.07;;;31.27;;
2850;SDS011;1433;49.976;8.342;2022-12-18T14:55:19;48.17;;;30.20;;
2850;SDS011;1433;49.976;8.342;2022-12-18T14:57:49;56.37;;;32.03;;
2850;SDS011;1433;49.976;8.342;2022-12-18T15:00:20;49.50;;;30.67;;
2850;SDS011;1433;49.976;8.342;2022-12-18T15:02:50;48.73;;;28.23;;
2850;SDS011;1433;49.976;8.342;2022-12-18T15:05:26;76.83;;;41.17;;
2850;SDS011;1433;49.976;8.342;2022-12-18T15:07:59;76.57;;;46.30;;
2850;SDS011;1433;49.976;8.342;2022-12-18T15:10:28;51.50;;;31.27;;
2850;SDS011;1433;49.976;8.342;2022-12-18T15:23:19;64.10;;;35.50;;
2850;SDS011;1433;49.976;8.342;2022-12-18T15:25:48;49.50;;;30.13;;
2850;SDS011;1433;49.976;8.342;2022-12-18T15:28:18;55.70;;;31.97;;
2850;SDS011;1433;49.976;8.342;2022-12-18T15:33:36;54.97;;;31.40;;
2850;SDS011;1433;49.976;8.342;2022-12-18T15:36:12;51.30;;;29.87;;
2850;SDS011;1433;49.976;8.342;2022-12-18T15:38:40;50.23;;;30.00;;
2850;SDS011;1433;49.976;8.342;2022-12-18T15:41:13;45.60;;;30.53;;
2850;SDS011;1433;49.976;8.342;2022-12-18T15:43:41;51.00;;;31.30;;
2850;SDS011;1433;49.976;8.342;2022-12-18T15:46:12;51.37;;;29.90;;
2850;SDS011;1433;49.976;8.342;2022-12-18T15:48:49;52.17;;;31.03;;
2850;SDS011;1433;49.976;8.342;2022-12-18T15:51:26;50.80;;;30.27;;
2850;SDS011;1433;49.976;8.342;2022-12-18T15:53:56;47.50;;;31.23;;
2850;SDS011;1433;49.976;8.342;2022-12-18T15:56:24;52.83;;;29.10;;
2850;SDS011;1433;49.976;8.342;2022-12-18T15:59:13;51.47;;;30.90;;
2850;SDS011;1433;49.976;8.342;2022-12-18T16:01:42;55.87;;;30.70;;
2850;SDS011;1433;49.976;8.342;2022-12-18T16:04:11;47.17;;;29.37;;
2850;SDS011;1433;49.976;8.342;2022-12-18T16:06:39;45.17;;;27.73;;
2850;SDS011;1433;49.976;8.342;2022-12-18T16:09:05;44.67;;;30.80;;
2850;SDS011;1433;49.976;8.342;2022-12-18T16:11:32;52.33;;;30.80;;
2850;SDS011;1433;49.976;8.342;2022-12-18T16:14:11;41.77;;;27.70;;
2850;SDS011;1433;49.976;8.342;2022-12-18T16:16:46;45.67;;;29.77;;
2850;SDS011;1433;49.976;8.342;2022-12-18T16:19:13;45.00;;;29.47;;
2850;SDS011;1433;49.976;8.342;2022-12-18T16:21:39;54.40;;;30.70;;
2850;SDS011;1433;49.976;8.342;2022-12-18T16:24:09;51.30;;;33.30;;
2850;SDS011;1433;49.976;8.342;2022-12-18T16:26:51;50.30;;;30.80;;
2850;SDS011;1433;49.976;8.342;2022-12-18T16:29:18;41.67;;;29.73;;
2850;SDS011;1433;49.976;8.342;2022-12-18T16:31:50;49.20;;;29.43;;
2850;SDS011;1433;49.976;8.342;2022-12-18T16:34:21;52.62;;;29.23;;
2850;SDS011;1433;49.976;8.342;2022-12-18T16:36:56;48.43;;;31.90;;
2850;SDS011;1433;49.976;8.342;2022-12-18T16:39:24;47.65;;;31.27;;
2850;SDS011;1433;49.976;8.342;2022-12-18T16:41:51;51.40;;;31.03;;
2850;SDS011;1433;49.976;8.342;2022-12-18T16:44:18;54.50;;;35.03;;
2850;SDS011;1433;49.976;8.342;2022-12-18T16:46:44;50.70;;;33.37;;
2850;SDS011;1433;49.976;8.342;2022-12-18T16:49:12;50.97;;;29.40;;
2850;SDS011;1433;49.976;8.342;2022-12-18T16:51:39;57.83;;;34.90;;
2850;SDS011;1433;49.976;8.342;2022-12-18T16:54:05;44.83;;;31.37;;